createdAt,value
2022-08-04T00:04:08.957Z,95567.97
2022-08-04T00:09:12.640Z,95570.94
2022-08-04T00:14:16.276Z,95566.84
2022-08-04T00:19:20.741Z,95577.22
2022-08-04T00:24:23.987Z,95568.13
2022-08-04T00:29:27.639Z,95574.16
2022-08-04T00:34:30.859Z,95576.09
2022-08-04T00:39:34.955Z,95561.63
2022-08-04T00:44:39.403Z,95561.28
2022-08-04T00:49:42.986Z,95573.44
2022-08-04T00:54:47.399Z,95564.00
2022-08-04T00:59:51.107Z,95572.97
2022-08-04T01:04:54.795Z,95575.22
2022-08-04T01:09:58.274Z,95571.25
2022-08-04T01:15:03.802Z,95563.84
2022-08-04T01:20:08.261Z,95577.84
2022-08-04T01:25:12.747Z,95559.19
2022-08-04T01:30:19.078Z,95579.53
2022-08-04T01:35:47.794Z,95577.38
2022-08-04T01:41:08.025Z,95574.41
2022-08-04T01:46:16.666Z,95571.72
2022-08-04T01:51:20.866Z,95574.88
2022-08-04T01:56:25.000Z,95579.84
2022-08-04T02:01:28.802Z,95577.56
2022-08-04T02:06:36.239Z,95568.56
2022-08-04T02:11:39.830Z,95576.94
2022-08-04T02:16:43.880Z,95571.91
2022-08-04T02:21:47.931Z,95573.72
2022-08-04T02:26:51.957Z,95576.31
2022-08-04T02:31:55.239Z,95565.03
2022-08-04T02:36:59.384Z,95570.47
2022-08-04T02:42:02.957Z,95570.22
2022-08-04T02:47:07.000Z,95566.28
2022-08-04T02:52:10.905Z,95565.22
2022-08-04T02:57:14.604Z,95559.44
2022-08-04T03:02:18.889Z,95560.75
2022-08-04T03:07:23.155Z,95558.03
2022-08-04T03:12:27.598Z,95560.09
2022-08-04T03:17:31.391Z,95556.09
2022-08-04T03:22:35.073Z,95552.31
2022-08-04T03:27:38.770Z,95552.59
2022-08-04T03:32:42.370Z,95556.19
2022-08-04T03:37:45.981Z,95561.28
2022-08-04T03:42:49.953Z,95557.75
2022-08-04T03:47:53.168Z,95564.03
2022-08-04T03:53:11.615Z,95557.81
2022-08-04T03:58:15.792Z,95566.94
2022-08-04T04:03:28.746Z,95559.72
2022-08-04T04:08:32.475Z,95559.50
2022-08-04T04:13:35.772Z,95564.00
2022-08-04T04:18:39.697Z,95563.50
2022-08-04T04:23:42.990Z,95569.16
2022-08-04T04:28:48.474Z,95571.44
2022-08-04T04:33:52.472Z,95569.34
2022-08-04T04:38:57.600Z,95572.41
2022-08-04T04:44:01.314Z,95576.56
2022-08-04T04:49:04.592Z,95574.94
2022-08-04T04:54:08.722Z,95577.34
2022-08-04T04:59:11.894Z,95582.94
2022-08-04T05:04:15.669Z,95584.50
2022-08-04T05:09:19.221Z,95594.28
2022-08-04T05:14:34.916Z,95590.22
2022-08-04T05:19:43.656Z,95589.50
2022-08-04T05:24:48.619Z,95578.47
2022-08-04T05:29:51.886Z,95578.53
2022-08-04T05:34:56.178Z,95574.72
2022-08-04T05:39:59.404Z,95577.50
2022-08-04T05:45:02.607Z,95579.66
2022-08-04T05:50:06.885Z,95581.56
2022-08-04T05:55:13.688Z,95582.03
2022-08-04T06:00:41.145Z,95578.25
2022-08-04T06:05:44.884Z,95578.75
2022-08-04T06:10:48.509Z,95581.41
2022-08-04T06:15:51.722Z,95580.13
2022-08-04T06:20:55.428Z,95586.09
2022-08-04T06:25:59.070Z,95583.81
2022-08-04T06:32:28.261Z,95584.34
2022-08-04T06:36:30.508Z,95578.50
2022-08-04T06:41:34.228Z,95580.94
2022-08-04T06:46:37.623Z,95578.19
2022-08-04T06:51:49.049Z,95579.41
2022-08-04T06:56:52.688Z,95571.28
2022-08-04T07:01:56.072Z,95580.94
2022-08-04T07:06:59.746Z,95578.28
2022-08-04T07:12:03.743Z,95585.88
2022-08-04T07:17:08.307Z,95583.59
2022-08-04T07:22:17.779Z,95587.72
2022-08-04T07:27:48.506Z,95575.16
2022-08-04T07:32:52.977Z,95581.72
2022-08-04T07:37:57.466Z,95579.88
2022-08-04T07:43:03.202Z,95585.81
2022-08-04T07:48:07.305Z,95585.94
2022-08-04T07:53:54.237Z,95580.78
2022-08-04T07:58:35.137Z,95575.19
2022-08-04T08:03:38.436Z,95572.03
2022-08-04T08:08:41.700Z,95574.47
2022-08-04T08:13:45.497Z,95588.25
2022-08-04T08:18:50.182Z,95580.69
2022-08-04T08:23:53.709Z,95583.19
2022-08-04T08:28:57.219Z,95579.91
2022-08-04T08:34:01.381Z,95573.47
2022-08-04T08:39:04.695Z,95585.44
2022-08-04T08:44:08.058Z,95575.44
2022-08-04T08:49:12.582Z,95572.59
2022-08-04T08:54:36.426Z,95572.47
2022-08-04T08:59:39.974Z,95581.72
2022-08-04T09:04:43.622Z,95583.50
2022-08-04T09:09:49.614Z,95572.25
2022-08-04T09:14:53.302Z,95580.75
2022-08-04T09:19:56.630Z,95568.00
2022-08-04T09:25:00.423Z,95568.78
2022-08-04T09:30:04.618Z,95565.75
2022-08-04T09:35:14.930Z,95565.47
2022-08-04T09:40:29.048Z,95565.19
2022-08-04T09:45:43.185Z,95567.84
2022-08-04T09:50:50.464Z,95568.66
2022-08-04T09:55:57.890Z,95564.16
2022-08-04T10:01:04.057Z,95555.69
2022-08-04T10:06:07.274Z,95556.41
2022-08-04T10:11:10.489Z,95556.50
2022-08-04T10:16:14.577Z,95554.22
2022-08-04T10:21:17.803Z,95548.94
2022-08-04T10:26:21.036Z,95550.25
2022-08-04T10:31:24.803Z,95543.19
2022-08-04T10:36:28.335Z,95540.44
2022-08-04T10:41:32.311Z,95533.63
2022-08-04T10:46:35.799Z,95527.75
2022-08-04T10:51:58.715Z,95534.75
2022-08-04T10:57:03.229Z,95531.28
2022-08-04T11:02:06.542Z,95533.63
2022-08-04T11:07:10.468Z,95523.56
2022-08-04T11:12:13.975Z,95525.81
2022-08-04T11:17:17.850Z,95516.44
2022-08-04T11:22:21.726Z,95513.72
2022-08-04T11:27:25.717Z,95521.38
2022-08-04T11:32:29.436Z,95508.56
2022-08-04T11:37:33.056Z,95516.06
2022-08-04T11:42:37.146Z,95509.69
2022-08-04T11:47:41.127Z,95517.31
2022-08-04T11:52:45.618Z,95522.63
2022-08-04T11:57:54.405Z,95511.31
2022-08-04T12:02:58.581Z,95505.78
2022-08-04T12:08:03.431Z,95512.44
2022-08-04T12:13:07.029Z,95514.50
2022-08-04T12:18:10.582Z,95508.78
2022-08-04T12:23:14.936Z,95495.72
2022-08-04T12:28:18.396Z,95501.09
2022-08-04T12:33:21.802Z,95501.38
2022-08-04T12:38:25.412Z,95495.84
2022-08-04T12:43:28.796Z,95494.25
2022-08-04T12:48:32.301Z,95487.94
2022-08-04T12:53:51.052Z,95492.88
2022-08-04T12:58:55.534Z,95482.75
2022-08-04T13:03:59.039Z,95478.50
2022-08-04T13:09:02.473Z,95482.00
2022-08-04T13:14:26.080Z,95476.78
2022-08-04T13:19:29.800Z,95468.94
2022-08-04T13:24:34.816Z,95468.22
2022-08-04T13:29:58.779Z,95463.09
2022-08-04T13:35:06.099Z,95463.50
2022-08-04T13:40:09.452Z,95462.47
2022-08-04T13:45:12.853Z,95452.22
2022-08-04T13:50:16.135Z,95449.31
2022-08-04T13:55:19.674Z,95449.84
2022-08-04T14:00:29.825Z,95447.22
2022-08-04T14:05:59.606Z,95426.97
2022-08-04T14:10:57.783Z,95434.34
2022-08-04T14:16:04.035Z,95430.19
2022-08-04T14:21:07.884Z,95426.75
2022-08-04T14:26:11.123Z,95421.16
2022-08-04T14:31:14.377Z,95414.19
2022-08-04T14:36:18.105Z,95415.22
2022-08-04T14:41:26.145Z,95423.31
2022-08-04T14:46:36.542Z,95417.47
2022-08-04T14:51:40.526Z,95421.34
2022-08-04T14:56:47.151Z,95409.41
2022-08-04T15:02:00.223Z,95417.88
2022-08-04T15:07:04.982Z,95399.25
2022-08-04T15:12:08.726Z,95399.94
2022-08-04T15:17:29.202Z,95403.97
2022-08-04T15:22:34.238Z,95406.59
2022-08-04T15:27:37.533Z,95395.44
2022-08-04T15:32:41.058Z,95389.75
2022-08-04T15:37:44.578Z,95388.81
2022-08-04T15:42:47.962Z,95378.03
2022-08-04T15:47:53.516Z,95381.16
2022-08-04T15:53:01.455Z,95375.06
2022-08-04T15:58:14.370Z,95369.34
2022-08-04T16:03:19.400Z,95372.09
2022-08-04T16:08:42.863Z,95368.78
2022-08-04T16:14:02.229Z,95364.44
2022-08-04T16:19:06.346Z,95358.22
2022-08-04T16:24:10.049Z,95357.09
2022-08-04T16:29:13.714Z,95362.84
2022-08-04T16:34:46.444Z,95360.22
2022-08-04T16:39:50.005Z,95350.44
2022-08-04T16:44:55.078Z,95352.72
2022-08-04T16:49:58.762Z,95348.00
2022-08-04T16:55:01.948Z,95344.06
2022-08-04T17:00:05.163Z,95350.38
2022-08-04T17:05:14.926Z,95343.84
2022-08-04T17:10:38.186Z,95343.63
2022-08-04T17:15:41.404Z,95340.19
2022-08-04T17:20:59.052Z,95336.34
2022-08-04T17:26:05.832Z,95331.38
2022-08-04T17:31:11.683Z,95335.41
2022-08-04T17:36:16.138Z,95329.47
2022-08-04T17:41:30.067Z,95332.81
2022-08-04T17:46:34.070Z,95326.41
2022-08-04T17:52:06.672Z,95327.50
2022-08-04T17:57:01.316Z,95330.81
2022-08-04T18:12:53.386Z,95322.09
2022-08-04T18:18:19.792Z,95324.28
2022-08-04T18:23:32.094Z,95330.09
2022-08-04T18:28:36.827Z,95328.28
2022-08-04T18:33:42.268Z,95327.28
2022-08-04T18:38:45.615Z,95333.81
2022-08-04T18:43:59.254Z,95339.56
2022-08-04T18:49:03.076Z,95350.34
2022-08-04T18:54:07.943Z,95355.16
2022-08-04T18:59:13.678Z,95362.34
2022-08-04T19:04:33.031Z,95365.97
2022-08-04T19:09:52.005Z,95362.03
2022-08-04T19:14:58.006Z,95365.19
2022-08-04T19:20:03.471Z,95368.00
2022-08-04T19:25:07.200Z,95381.41
2022-08-04T19:30:12.453Z,95381.75
2022-08-04T19:35:20.913Z,95384.09
2022-08-04T19:40:33.571Z,95393.16
2022-08-04T19:45:44.725Z,95395.09
2022-08-04T19:50:49.145Z,95395.09
2022-08-04T19:55:53.883Z,95400.59
2022-08-04T20:00:57.194Z,95400.88
2022-08-04T20:06:00.781Z,95405.19
2022-08-04T20:11:04.391Z,95402.75
2022-08-04T20:16:20.254Z,95398.34
2022-08-04T20:21:53.414Z,95399.81
2022-08-04T20:26:55.636Z,95403.22
2022-08-04T20:32:05.553Z,95392.47
2022-08-04T20:37:12.272Z,95400.69
2022-08-04T20:42:19.234Z,95393.53
2022-08-04T20:47:35.582Z,95388.72
2022-08-04T20:52:40.303Z,95392.66
2022-08-04T20:57:48.858Z,95394.09
2022-08-04T21:02:53.401Z,95386.16
2022-08-04T21:07:57.442Z,95392.34
2022-08-04T21:13:01.434Z,95399.28
2022-08-04T21:18:07.115Z,95400.47
2022-08-04T21:23:14.886Z,95382.72
2022-08-04T21:28:27.820Z,95392.81
2022-08-04T21:33:50.621Z,95389.59
2022-08-04T21:38:55.290Z,95394.88
2022-08-04T21:43:59.570Z,95389.41
2022-08-04T21:49:03.213Z,95394.06
2022-08-04T21:54:16.996Z,95393.72
2022-08-04T21:59:23.520Z,95399.31
2022-08-04T22:04:34.463Z,95397.28
2022-08-04T22:09:45.581Z,95403.16
2022-08-04T22:16:04.032Z,95403.09
2022-08-04T22:20:29.000Z,95413.19
2022-08-04T22:25:32.765Z,95399.69
2022-08-04T22:30:48.294Z,95399.22
2022-08-04T22:35:55.658Z,95392.38
2022-08-04T22:41:01.748Z,95385.88
2022-08-04T22:46:06.334Z,95387.09
2022-08-04T22:51:10.173Z,95391.19
2022-08-04T22:56:16.799Z,95400.38
2022-08-04T23:01:59.199Z,95392.63
2022-08-04T23:07:09.090Z,95398.00
2022-08-04T23:12:28.130Z,95402.06
2022-08-04T23:17:43.906Z,95397.00
2022-08-04T23:22:55.681Z,95397.09
2022-08-04T23:28:00.353Z,95396.00
2022-08-04T23:33:07.924Z,95387.28
2022-08-04T23:38:31.071Z,95385.78
2022-08-04T23:43:38.731Z,95376.19
2022-08-04T23:48:54.011Z,95371.44
2022-08-04T23:54:03.185Z,95366.97
2022-08-04T23:59:17.991Z,95371.13
